sensor_id;sensor_type;location;lat;lon;timestamp;P1;durP1;ratioP1;P2;durP2;ratioP2
58950;SDS011;44730;53.158;6.398;2023-05-15T00:01:07;28.55;;;18.08;;
58950;SDS011;44730;53.158;6.398;2023-05-15T00:03:33;29.98;;;19.17;;
58950;SDS011;44730;53.158;6.398;2023-05-15T00:06:01;26.17;;;16.30;;
58950;SDS011;44730;53.158;6.398;2023-05-15T00:08:27;30.17;;;17.65;;
58950;SDS011;44730;53.158;6.398;2023-05-15T00:10:54;26.00;;;17.33;;
58950;SDS011;44730;53.158;6.398;2023-05-15T00:13:20;31.90;;;18.23;;
58950;SDS011;44730;53.158;6.398;2023-05-15T00:15:46;27.42;;;17.15;;
58950;SDS011;44730;53.158;6.398;2023-05-15T00:18:12;30.38;;;17.80;;
58950;SDS011;44730;53.158;6.398;2023-05-15T00:20:38;29.15;;;17.98;;
58950;SDS011;44730;53.158;6.398;2023-05-15T00:23:05;28.63;;;18.75;;
58950;SDS011;44730;53.158;6.398;2023-05-15T00:25:31;29.55;;;17.98;;
58950;SDS011;44730;53.158;6.398;2023-05-15T00:27:57;30.60;;;19.02;;
58950;SDS011;44730;53.158;6.398;2023-05-15T00:30:23;31.30;;;19.02;;
58950;SDS011;44730;53.158;6.398;2023-05-15T00:32:49;27.25;;;17.85;;
58950;SDS011;44730;53.158;6.398;2023-05-15T00:35:15;27.40;;;18.02;;
58950;SDS011;44730;53.158;6.398;2023-05-15T00:37:41;29.17;;;18.23;;
58950;SDS011;44730;53.158;6.398;2023-05-15T00:40:08;27.75;;;16.83;;
58950;SDS011;44730;53.158;6.398;2023-05-15T00:42:34;28.20;;;18.73;;
58950;SDS011;44730;53.158;6.398;2023-05-15T00:45:07;30.40;;;19.02;;
58950;SDS011;44730;53.158;6.398;2023-05-15T00:47:33;28.70;;;18.83;;
58950;SDS011;44730;53.158;6.398;2023-05-15T00:50:00;28.75;;;18.33;;
58950;SDS011;44730;53.158;6.398;2023-05-15T00:52:27;27.10;;;17.90;;
58950;SDS011;44730;53.158;6.398;2023-05-15T00:54:54;28.63;;;17.67;;
58950;SDS011;44730;53.158;6.398;2023-05-15T00:57:20;31.15;;;19.27;;
58950;SDS011;44730;53.158;6.398;2023-05-15T00:59:47;30.95;;;19.17;;
58950;SDS011;44730;53.158;6.398;2023-05-15T01:02:14;27.95;;;17.35;;
58950;SDS011;44730;53.158;6.398;2023-05-15T01:04:45;29.05;;;18.52;;
58950;SDS011;44730;53.158;6.398;2023-05-15T01:07:11;29.52;;;18.50;;
58950;SDS011;44730;53.158;6.398;2023-05-15T01:09:40;30.15;;;18.83;;
58950;SDS011;44730;53.158;6.398;2023-05-15T01:12:10;29.85;;;18.63;;
58950;SDS011;44730;53.158;6.398;2023-05-15T01:14:36;34.70;;;20.55;;
58950;SDS011;44730;53.158;6.398;2023-05-15T01:17:02;29.48;;;19.35;;
58950;SDS011;44730;53.158;6.398;2023-05-15T01:19:29;27.63;;;18.75;;
58950;SDS011;44730;53.158;6.398;2023-05-15T01:29:36;30.27;;;19.27;;
58950;SDS011;44730;53.158;6.398;2023-05-15T01:32:09;29.38;;;18.60;;
58950;SDS011;44730;53.158;6.398;2023-05-15T01:34:43;30.58;;;18.17;;
58950;SDS011;44730;53.158;6.398;2023-05-15T01:37:13;27.60;;;17.05;;
58950;SDS011;44730;53.158;6.398;2023-05-15T01:39:42;27.83;;;17.73;;
58950;SDS011;44730;53.158;6.398;2023-05-15T01:42:09;27.10;;;17.02;;
58950;SDS011;44730;53.158;6.398;2023-05-15T01:44:43;27.85;;;18.40;;
58950;SDS011;44730;53.158;6.398;2023-05-15T01:47:13;27.33;;;18.52;;
58950;SDS011;44730;53.158;6.398;2023-05-15T01:49:40;27.33;;;16.83;;
58950;SDS011;44730;53.158;6.398;2023-05-15T01:54:36;29.50;;;18.70;;
58950;SDS011;44730;53.158;6.398;2023-05-15T01:57:04;26.30;;;17.05;;
58950;SDS011;44730;53.158;6.398;2023-05-15T01:59:31;29.67;;;18.40;;
58950;SDS011;44730;53.158;6.398;2023-05-15T02:01:58;27.63;;;17.85;;
58950;SDS011;44730;53.158;6.398;2023-05-15T02:04:24;26.30;;;17.20;;
58950;SDS011;44730;53.158;6.398;2023-05-15T02:06:51;28.42;;;17.02;;
58950;SDS011;44730;53.158;6.398;2023-05-15T02:09:21;28.85;;;18.15;;
58950;SDS011;44730;53.158;6.398;2023-05-15T02:11:48;28.75;;;17.08;;
58950;SDS011;44730;53.158;6.398;2023-05-15T02:14:15;27.88;;;16.58;;
58950;SDS011;44730;53.158;6.398;2023-05-15T02:16:42;27.92;;;16.20;;
58950;SDS011;44730;53.158;6.398;2023-05-15T02:19:08;25.52;;;15.68;;
58950;SDS011;44730;53.158;6.398;2023-05-15T02:21:34;29.05;;;16.10;;
58950;SDS011;44730;53.158;6.398;2023-05-15T02:24:00;24.60;;;15.95;;
58950;SDS011;44730;53.158;6.398;2023-05-15T02:26:42;29.23;;;16.38;;
58950;SDS011;44730;53.158;6.398;2023-05-15T02:34:16;28.98;;;17.10;;
58950;SDS011;44730;53.158;6.398;2023-05-15T02:36:43;28.77;;;17.60;;
58950;SDS011;44730;53.158;6.398;2023-05-15T02:39:12;25.83;;;16.63;;
58950;SDS011;44730;53.158;6.398;2023-05-15T02:41:42;23.90;;;15.45;;
58950;SDS011;44730;53.158;6.398;2023-05-15T02:44:09;27.65;;;16.95;;
58950;SDS011;44730;53.158;6.398;2023-05-15T02:46:36;28.10;;;16.52;;
58950;SDS011;44730;53.158;6.398;2023-05-15T02:49:03;22.92;;;15.73;;
58950;SDS011;44730;53.158;6.398;2023-05-15T02:51:29;26.05;;;16.95;;
58950;SDS011;44730;53.158;6.398;2023-05-15T02:53:56;25.63;;;16.83;;
58950;SDS011;44730;53.158;6.398;2023-05-15T02:56:22;27.48;;;18.13;;
58950;SDS011;44730;53.158;6.398;2023-05-15T02:58:48;25.95;;;16.60;;
58950;SDS011;44730;53.158;6.398;2023-05-15T03:01:15;28.40;;;17.48;;
58950;SDS011;44730;53.158;6.398;2023-05-15T03:03:41;25.77;;;16.65;;
58950;SDS011;44730;53.158;6.398;2023-05-15T03:06:07;28.10;;;18.25;;
58950;SDS011;44730;53.158;6.398;2023-05-15T03:08:33;28.25;;;17.75;;
58950;SDS011;44730;53.158;6.398;2023-05-15T03:10:59;25.95;;;17.25;;
58950;SDS011;44730;53.158;6.398;2023-05-15T03:13:25;28.73;;;18.65;;
58950;SDS011;44730;53.158;6.398;2023-05-15T03:15:51;28.38;;;17.50;;
58950;SDS011;44730;53.158;6.398;2023-05-15T03:18:18;29.65;;;18.45;;
58950;SDS011;44730;53.158;6.398;2023-05-15T03:20:45;27.88;;;17.95;;
58950;SDS011;44730;53.158;6.398;2023-05-15T03:23:12;25.13;;;17.33;;
58950;SDS011;44730;53.158;6.398;2023-05-15T03:25:38;25.73;;;17.15;;
58950;SDS011;44730;53.158;6.398;2023-05-15T03:28:04;25.92;;;15.98;;
58950;SDS011;44730;53.158;6.398;2023-05-15T03:30:31;24.58;;;15.52;;
58950;SDS011;44730;53.158;6.398;2023-05-15T03:32:57;23.88;;;14.63;;
58950;SDS011;44730;53.158;6.398;2023-05-15T03:35:23;23.50;;;15.45;;
58950;SDS011;44730;53.158;6.398;2023-05-15T03:37:50;23.88;;;14.95;;
58950;SDS011;44730;53.158;6.398;2023-05-15T03:40:16;21.10;;;13.88;;
58950;SDS011;44730;53.158;6.398;2023-05-15T03:42:42;22.50;;;14.40;;
58950;SDS011;44730;53.158;6.398;2023-05-15T03:45:08;22.92;;;14.75;;
58950;SDS011;44730;53.158;6.398;2023-05-15T03:47:35;21.17;;;14.43;;
58950;SDS011;44730;53.158;6.398;2023-05-15T03:50:01;21.60;;;13.27;;
58950;SDS011;44730;53.158;6.398;2023-05-15T03:52:27;19.63;;;13.38;;
58950;SDS011;44730;53.158;6.398;2023-05-15T03:54:53;21.02;;;13.23;;
58950;SDS011;44730;53.158;6.398;2023-05-15T03:57:19;20.33;;;13.38;;
58950;SDS011;44730;53.158;6.398;2023-05-15T03:59:45;22.98;;;14.02;;
58950;SDS011;44730;53.158;6.398;2023-05-15T04:02:11;20.02;;;13.15;;
58950;SDS011;44730;53.158;6.398;2023-05-15T04:04:38;19.38;;;13.05;;
58950;SDS011;44730;53.158;6.398;2023-05-15T04:07:04;18.50;;;12.93;;
58950;SDS011;44730;53.158;6.398;2023-05-15T04:09:31;20.77;;;13.70;;
58950;SDS011;44730;53.158;6.398;2023-05-15T04:11:57;21.73;;;14.73;;
58950;SDS011;44730;53.158;6.398;2023-05-15T04:14:23;19.60;;;13.10;;
58950;SDS011;44730;53.158;6.398;2023-05-15T04:16:49;18.98;;;13.10;;
58950;SDS011;44730;53.158;6.398;2023-05-15T04:19:15;18.80;;;12.43;;
58950;SDS011;44730;53.158;6.398;2023-05-15T04:21:41;18.15;;;12.85;;
58950;SDS011;44730;53.158;6.398;2023-05-15T04:24:07;18.13;;;12.93;;
58950;SDS011;44730;53.158;6.398;2023-05-15T04:26:33;20.05;;;12.48;;
58950;SDS011;44730;53.158;6.398;2023-05-15T04:29:01;18.92;;;12.73;;
58950;SDS011;44730;53.158;6.398;2023-05-15T04:31:28;19.73;;;12.98;;
58950;SDS011;44730;53.158;6.398;2023-05-15T04:33:55;20.00;;;12.85;;
58950;SDS011;44730;53.158;6.398;2023-05-15T04:36:21;16.17;;;11.63;;
58950;SDS011;44730;53.158;6.398;2023-05-15T04:38:47;17.67;;;12.20;;
58950;SDS011;44730;53.158;6.398;2023-05-15T04:41:13;17.73;;;12.52;;
58950;SDS011;44730;53.158;6.398;2023-05-15T04:43:39;19.92;;;13.05;;
58950;SDS011;44730;53.158;6.398;2023-05-15T04:46:05;18.58;;;12.88;;
58950;SDS011;44730;53.158;6.398;2023-05-15T04:48:31;17.42;;;12.85;;
58950;SDS011;44730;53.158;6.398;2023-05-15T04:50:58;19.08;;;13.10;;
58950;SDS011;44730;53.158;6.398;2023-05-15T04:53:24;17.25;;;11.90;;
58950;SDS011;44730;53.158;6.398;2023-05-15T04:55:50;20.63;;;12.57;;
58950;SDS011;44730;53.158;6.398;2023-05-15T04:58:16;17.52;;;11.82;;
58950;SDS011;44730;53.158;6.398;2023-05-15T05:00:42;18.80;;;12.38;;
58950;SDS011;44730;53.158;6.398;2023-05-15T05:03:08;18.15;;;12.43;;
58950;SDS011;44730;53.158;6.398;2023-05-15T05:05:34;16.80;;;12.05;;
58950;SDS011;44730;53.158;6.398;2023-05-15T05:08:00;15.65;;;11.82;;
58950;SDS011;44730;53.158;6.398;2023-05-15T05:10:26;14.18;;;11.88;;
58950;SDS011;44730;53.158;6.398;2023-05-15T05:12:53;17.27;;;12.00;;
58950;SDS011;44730;53.158;6.398;2023-05-15T05:15:19;16.58;;;12.50;;
58950;SDS011;44730;53.158;6.398;2023-05-15T05:17:45;17.38;;;12.98;;
58950;SDS011;44730;53.158;6.398;2023-05-15T05:20:12;16.05;;;11.57;;
58950;SDS011;44730;53.158;6.398;2023-05-15T05:22:38;17.92;;;12.70;;
58950;SDS011;44730;53.158;6.398;2023-05-15T05:25:05;18.08;;;12.43;;
58950;SDS011;44730;53.158;6.398;2023-05-15T05:27:32;16.15;;;12.50;;
58950;SDS011;44730;53.158;6.398;2023-05-15T05:29:58;17.27;;;12.40;;
58950;SDS011;44730;53.158;6.398;2023-05-15T05:32:24;16.67;;;12.43;;
58950;SDS011;44730;53.158;6.398;2023-05-15T05:34:50;16.42;;;12.18;;
58950;SDS011;44730;53.158;6.398;2023-05-15T05:37:16;17.65;;;12.13;;
58950;SDS011;44730;53.158;6.398;2023-05-15T05:39:42;14.98;;;11.90;;
58950;SDS011;44730;53.158;6.398;2023-05-15T05:42:08;14.98;;;12.70;;
58950;SDS011;44730;53.158;6.398;2023-05-15T05:44:35;18.58;;;13.25;;
58950;SDS011;44730;53.158;6.398;2023-05-15T05:47:01;14.82;;;12.13;;
58950;SDS011;44730;53.158;6.398;2023-05-15T05:49:27;14.98;;;11.77;;
58950;SDS011;44730;53.158;6.398;2023-05-15T05:51:53;14.02;;;12.00;;
58950;SDS011;44730;53.158;6.398;2023-05-15T05:54:19;14.52;;;12.38;;
58950;SDS011;44730;53.158;6.398;2023-05-15T05:56:45;15.00;;;12.68;;
58950;SDS011;44730;53.158;6.398;2023-05-15T05:59:11;14.80;;;11.95;;
58950;SDS011;44730;53.158;6.398;2023-05-15T06:01:37;15.13;;;13.48;;
58950;SDS011;44730;53.158;6.398;2023-05-15T06:04:04;17.55;;;13.02;;
58950;SDS011;44730;53.158;6.398;2023-05-15T06:06:30;17.05;;;13.57;;
58950;SDS011;44730;53.158;6.398;2023-05-15T06:08:56;15.48;;;13.88;;
58950;SDS011;44730;53.158;6.398;2023-05-15T06:11:22;16.80;;;14.43;;
58950;SDS011;44730;53.158;6.398;2023-05-15T06:13:48;14.27;;;12.77;;
58950;SDS011;44730;53.158;6.398;2023-05-15T06:16:14;15.25;;;13.50;;
58950;SDS011;44730;53.158;6.398;2023-05-15T06:18:40;14.82;;;12.90;;
58950;SDS011;44730;53.158;6.398;2023-05-15T06:21:06;14.40;;;12.90;;
58950;SDS011;44730;53.158;6.398;2023-05-15T06:23:32;14.10;;;12.18;;
58950;SDS011;44730;53.158;6.398;2023-05-15T06:25:59;15.20;;;12.90;;
58950;SDS011;44730;53.158;6.398;2023-05-15T06:28:25;14.77;;;12.65;;
58950;SDS011;44730;53.158;6.398;2023-05-15T06:30:52;14.02;;;12.63;;
58950;SDS011;44730;53.158;6.398;2023-05-15T06:33:18;15.85;;;14.00;;
58950;SDS011;44730;53.158;6.398;2023-05-15T06:35:45;16.70;;;13.05;;
58950;SDS011;44730;53.158;6.398;2023-05-15T06:38:12;15.93;;;13.43;;
58950;SDS011;44730;53.158;6.398;2023-05-15T06:40:38;15.48;;;13.38;;
58950;SDS011;44730;53.158;6.398;2023-05-15T06:43:04;15.77;;;13.73;;
58950;SDS011;44730;53.158;6.398;2023-05-15T06:45:30;15.60;;;13.95;;
58950;SDS011;44730;53.158;6.398;2023-05-15T06:47:56;15.27;;;13.68;;
58950;SDS011;44730;53.158;6.398;2023-05-15T06:50:22;18.15;;;13.75;;
58950;SDS011;44730;53.158;6.398;2023-05-15T06:52:48;15.20;;;12.65;;
58950;SDS011;44730;53.158;6.398;2023-05-15T06:55:15;12.73;;;11.18;;
58950;SDS011;44730;53.158;6.398;2023-05-15T06:57:41;12.90;;;11.25;;
58950;SDS011;44730;53.158;6.398;2023-05-15T07:00:07;13.15;;;11.10;;
58950;SDS011;44730;53.158;6.398;2023-05-15T07:02:34;10.90;;;9.88;;
58950;SDS011;44730;53.158;6.398;2023-05-15T07:05:00;9.70;;;8.70;;
58950;SDS011;44730;53.158;6.398;2023-05-15T07:07:27;10.43;;;8.95;;
58950;SDS011;44730;53.158;6.398;2023-05-15T07:09:53;9.93;;;8.80;;
58950;SDS011;44730;53.158;6.398;2023-05-15T07:12:19;10.20;;;9.20;;
58950;SDS011;44730;53.158;6.398;2023-05-15T07:14:45;9.82;;;8.25;;
58950;SDS011;44730;53.158;6.398;2023-05-15T07:17:11;10.48;;;9.38;;
58950;SDS011;44730;53.158;6.398;2023-05-15T07:19:37;11.25;;;9.40;;
58950;SDS011;44730;53.158;6.398;2023-05-15T07:22:04;9.15;;;8.25;;
58950;SDS011;44730;53.158;6.398;2023-05-15T07:24:30;11.45;;;8.88;;
58950;SDS011;44730;53.158;6.398;2023-05-15T07:26:56;12.05;;;9.52;;
58950;SDS011;44730;53.158;6.398;2023-05-15T07:29:22;10.00;;;8.95;;
58950;SDS011;44730;53.158;6.398;2023-05-15T07:31:48;10.18;;;9.15;;
58950;SDS011;44730;53.158;6.398;2023-05-15T07:34:14;9.68;;;8.75;;
58950;SDS011;44730;53.158;6.398;2023-05-15T07:36:40;9.63;;;8.63;;
58950;SDS011;44730;53.158;6.398;2023-05-15T07:39:06;9.57;;;8.35;;
58950;SDS011;44730;53.158;6.398;2023-05-15T07:41:33;9.90;;;8.10;;
58950;SDS011;44730;53.158;6.398;2023-05-15T07:44:00;9.30;;;8.30;;
58950;SDS011;44730;53.158;6.398;2023-05-15T07:46:26;9.77;;;8.45;;
58950;SDS011;44730;53.158;6.398;2023-05-15T07:48:52;10.75;;;8.52;;
58950;SDS011;44730;53.158;6.398;2023-05-15T07:51:18;9.73;;;8.30;;
58950;SDS011;44730;53.158;6.398;2023-05-15T07:53:44;9.23;;;8.27;;
58950;SDS011;44730;53.158;6.398;2023-05-15T07:56:11;9.95;;;8.80;;
58950;SDS011;44730;53.158;6.398;2023-05-15T07:58:37;10.80;;;8.50;;
58950;SDS011;44730;53.158;6.398;2023-05-15T08:11:38;9.02;;;8.13;;
58950;SDS011;44730;53.158;6.398;2023-05-15T08:14:04;9.25;;;8.35;;
58950;SDS011;44730;53.158;6.398;2023-05-15T08:16:31;9.60;;;8.60;;
58950;SDS011;44730;53.158;6.398;2023-05-15T08:18:57;9.52;;;8.63;;
58950;SDS011;44730;53.158;6.398;2023-05-15T08:21:28;8.82;;;8.02;;
58950;SDS011;44730;53.158;6.398;2023-05-15T08:23:55;9.45;;;8.55;;
58950;SDS011;44730;53.158;6.398;2023-05-15T08:26:21;8.40;;;7.50;;
58950;SDS011;44730;53.158;6.398;2023-05-15T08:28:47;10.35;;;8.30;;
58950;SDS011;44730;53.158;6.398;2023-05-15T08:31:14;9.52;;;8.45;;
58950;SDS011;44730;53.158;6.398;2023-05-15T08:33:40;9.05;;;8.15;;
58950;SDS011;44730;53.158;6.398;2023-05-15T08:36:06;9.30;;;8.40;;
58950;SDS011;44730;53.158;6.398;2023-05-15T08:38:32;8.88;;;7.95;;
58950;SDS011;44730;53.158;6.398;2023-05-15T08:41:01;7.72;;;7.03;;
58950;SDS011;44730;53.158;6.398;2023-05-15T08:43:31;7.65;;;6.85;;
58950;SDS011;44730;53.158;6.398;2023-05-15T08:45:59;9.38;;;7.72;;
58950;SDS011;44730;53.158;6.398;2023-05-15T08:48:26;8.35;;;7.53;;
58950;SDS011;44730;53.158;6.398;2023-05-15T08:50:54;7.63;;;6.85;;
58950;SDS011;44730;53.158;6.398;2023-05-15T08:53:22;7.85;;;7.05;;
58950;SDS011;44730;53.158;6.398;2023-05-15T08:55:48;7.70;;;7.00;;
58950;SDS011;44730;53.158;6.398;2023-05-15T08:58:15;7.78;;;7.00;;
58950;SDS011;44730;53.158;6.398;2023-05-15T09:00:41;8.18;;;7.38;;
58950;SDS011;44730;53.158;6.398;2023-05-15T09:03:12;8.13;;;7.32;;
58950;SDS011;44730;53.158;6.398;2023-05-15T09:05:38;10.45;;;7.20;;
58950;SDS011;44730;53.158;6.398;2023-05-15T09:08:05;8.73;;;7.80;;
58950;SDS011;44730;53.158;6.398;2023-05-15T09:10:33;8.57;;;7.72;;
58950;SDS011;44730;53.158;6.398;2023-05-15T09:13:01;8.25;;;7.50;;
58950;SDS011;44730;53.158;6.398;2023-05-15T09:15:27;8.07;;;7.38;;
58950;SDS011;44730;53.158;6.398;2023-05-15T09:17:54;8.60;;;7.38;;
58950;SDS011;44730;53.158;6.398;2023-05-15T09:20:25;7.65;;;6.93;;
58950;SDS011;44730;53.158;6.398;2023-05-15T09:22:51;8.52;;;7.30;;
58950;SDS011;44730;53.158;6.398;2023-05-15T09:28:10;7.55;;;6.38;;
58950;SDS011;44730;53.158;6.398;2023-05-15T09:31:01;8.80;;;7.90;;
58950;SDS011;44730;53.158;6.398;2023-05-15T09:33:31;8.57;;;7.22;;
58950;SDS011;44730;53.158;6.398;2023-05-15T09:35:57;7.80;;;6.63;;
58950;SDS011;44730;53.158;6.398;2023-05-15T09:38:24;8.07;;;7.10;;
58950;SDS011;44730;53.158;6.398;2023-05-15T09:41:05;7.78;;;6.97;;
58950;SDS011;44730;53.158;6.398;2023-05-15T09:43:37;8.05;;;7.22;;
58950;SDS011;44730;53.158;6.398;2023-05-15T09:46:04;8.18;;;7.38;;
58950;SDS011;44730;53.158;6.398;2023-05-15T09:48:30;7.50;;;6.75;;
58950;SDS011;44730;53.158;6.398;2023-05-15T09:50:57;7.95;;;7.15;;
58950;SDS011;44730;53.158;6.398;2023-05-15T09:53:28;9.38;;;7.47;;
58950;SDS011;44730;53.158;6.398;2023-05-15T09:56:03;7.90;;;7.10;;
58950;SDS011;44730;53.158;6.398;2023-05-15T09:58:32;8.43;;;7.32;;
58950;SDS011;44730;53.158;6.398;2023-05-15T10:01:02;7.85;;;7.15;;
58950;SDS011;44730;53.158;6.398;2023-05-15T10:03:39;8.15;;;7.45;;
58950;SDS011;44730;53.158;6.398;2023-05-15T10:06:07;7.90;;;7.20;;
58950;SDS011;44730;53.158;6.398;2023-05-15T10:08:51;7.78;;;6.97;;
58950;SDS011;44730;53.158;6.398;2023-05-15T10:11:17;8.45;;;7.47;;
58950;SDS011;44730;53.158;6.398;2023-05-15T10:13:45;8.35;;;7.55;;
58950;SDS011;44730;53.158;6.398;2023-05-15T10:16:12;8.20;;;7.50;;
58950;SDS011;44730;53.158;6.398;2023-05-15T10:18:41;8.05;;;7.30;;
58950;SDS011;44730;53.158;6.398;2023-05-15T10:21:09;7.95;;;7.15;;
58950;SDS011;44730;53.158;6.398;2023-05-15T10:23:36;8.38;;;6.93;;
58950;SDS011;44730;53.158;6.398;2023-05-15T10:26:19;8.18;;;7.28;;
58950;SDS011;44730;53.158;6.398;2023-05-15T10:28:53;8.48;;;7.68;;
58950;SDS011;44730;53.158;6.398;2023-05-15T10:31:19;7.97;;;7.28;;
58950;SDS011;44730;53.158;6.398;2023-05-15T10:33:46;7.65;;;6.95;;
58950;SDS011;44730;53.158;6.398;2023-05-15T10:36:15;7.10;;;6.50;;
58950;SDS011;44730;53.158;6.398;2023-05-15T10:38:41;6.82;;;6.22;;
58950;SDS011;44730;53.158;6.398;2023-05-15T10:41:08;7.60;;;6.85;;
58950;SDS011;44730;53.158;6.398;2023-05-15T10:43:38;8.77;;;7.10;;
58950;SDS011;44730;53.158;6.398;2023-05-15T10:46:06;7.43;;;6.72;;
58950;SDS011;44730;53.158;6.398;2023-05-15T10:48:33;29.00;;;18.58;;
58950;SDS011;44730;53.158;6.398;2023-05-15T10:51:02;18.55;;;15.73;;
58950;SDS011;44730;53.158;6.398;2023-05-15T10:53:28;7.72;;;6.97;;
58950;SDS011;44730;53.158;6.398;2023-05-15T10:55:57;7.25;;;6.55;;
58950;SDS011;44730;53.158;6.398;2023-05-15T10:58:23;11.02;;;7.68;;
58950;SDS011;44730;53.158;6.398;2023-05-15T11:00:49;8.95;;;7.30;;
58950;SDS011;44730;53.158;6.398;2023-05-15T11:03:15;6.78;;;6.18;;
58950;SDS011;44730;53.158;6.398;2023-05-15T11:06:09;7.43;;;6.72;;
58950;SDS011;44730;53.158;6.398;2023-05-15T11:08:37;11.77;;;10.35;;
58950;SDS011;44730;53.158;6.398;2023-05-15T11:11:05;6.70;;;5.90;;
58950;SDS011;44730;53.158;6.398;2023-05-15T11:22:07;7.95;;;7.25;;
58950;SDS011;44730;53.158;6.398;2023-05-15T11:27:15;8.80;;;8.05;;
58950;SDS011;44730;53.158;6.398;2023-05-15T11:32:31;9.05;;;8.25;;
58950;SDS011;44730;53.158;6.398;2023-05-15T11:35:00;9.68;;;8.68;;
58950;SDS011;44730;53.158;6.398;2023-05-15T11:37:28;9.50;;;8.45;;
58950;SDS011;44730;53.158;6.398;2023-05-15T11:39:54;8.85;;;8.05;;
58950;SDS011;44730;53.158;6.398;2023-05-15T11:42:20;7.90;;;7.20;;
58950;SDS011;44730;53.158;6.398;2023-05-15T11:44:46;7.18;;;6.47;;
58950;SDS011;44730;53.158;6.398;2023-05-15T11:47:13;7.35;;;6.53;;
58950;SDS011;44730;53.158;6.398;2023-05-15T11:49:39;7.07;;;6.38;;
58950;SDS011;44730;53.158;6.398;2023-05-15T11:52:06;6.88;;;6.18;;
58950;SDS011;44730;53.158;6.398;2023-05-15T11:54:33;7.07;;;6.47;;
58950;SDS011;44730;53.158;6.398;2023-05-15T11:56:59;6.50;;;5.88;;
58950;SDS011;44730;53.158;6.398;2023-05-15T11:59:30;7.22;;;5.70;;
58950;SDS011;44730;53.158;6.398;2023-05-15T12:01:58;6.05;;;5.55;;
58950;SDS011;44730;53.158;6.398;2023-05-15T12:04:24;6.07;;;5.47;;
58950;SDS011;44730;53.158;6.398;2023-05-15T12:06:50;6.05;;;5.53;;
58950;SDS011;44730;53.158;6.398;2023-05-15T12:09:17;6.03;;;5.47;;
58950;SDS011;44730;53.158;6.398;2023-05-15T12:11:50;6.50;;;5.15;;
58950;SDS011;44730;53.158;6.398;2023-05-15T12:14:24;5.80;;;5.30;;
58950;SDS011;44730;53.158;6.398;2023-05-15T12:16:51;6.28;;;5.40;;
58950;SDS011;44730;53.158;6.398;2023-05-15T12:19:17;6.40;;;5.80;;
58950;SDS011;44730;53.158;6.398;2023-05-15T12:21:46;6.57;;;5.88;;
58950;SDS011;44730;53.158;6.398;2023-05-15T12:24:12;6.13;;;5.53;;
58950;SDS011;44730;53.158;6.398;2023-05-15T12:26:38;6.57;;;5.97;;
58950;SDS011;44730;53.158;6.398;2023-05-15T12:29:05;7.20;;;6.10;;
58950;SDS011;44730;53.158;6.398;2023-05-15T12:31:34;7.25;;;6.65;;
58950;SDS011;44730;53.158;6.398;2023-05-15T12:34:01;7.82;;;7.10;;
58950;SDS011;44730;53.158;6.398;2023-05-15T12:36:27;7.05;;;5.93;;
58950;SDS011;44730;53.158;6.398;2023-05-15T12:38:55;14.18;;;7.10;;
58950;SDS011;44730;53.158;6.398;2023-05-15T12:41:24;7.53;;;6.82;;
58950;SDS011;44730;53.158;6.398;2023-05-15T12:43:51;8.05;;;7.25;;
58950;SDS011;44730;53.158;6.398;2023-05-15T12:46:20;8.32;;;7.53;;
58950;SDS011;44730;53.158;6.398;2023-05-15T12:48:47;8.23;;;7.43;;
58950;SDS011;44730;53.158;6.398;2023-05-15T12:51:15;8.43;;;7.63;;
58950;SDS011;44730;53.158;6.398;2023-05-15T12:53:41;7.68;;;6.97;;
58950;SDS011;44730;53.158;6.398;2023-05-15T12:56:07;8.80;;;7.90;;
58950;SDS011;44730;53.158;6.398;2023-05-15T12:58:34;9.32;;;8.15;;
58950;SDS011;44730;53.158;6.398;2023-05-15T13:01:00;8.25;;;7.55;;
58950;SDS011;44730;53.158;6.398;2023-05-15T13:03:29;8.63;;;7.05;;
58950;SDS011;44730;53.158;6.398;2023-05-15T13:05:55;8.20;;;7.40;;
58950;SDS011;44730;53.158;6.398;2023-05-15T13:08:21;8.35;;;7.55;;
58950;SDS011;44730;53.158;6.398;2023-05-15T13:10:54;8.73;;;7.78;;
58950;SDS011;44730;53.158;6.398;2023-05-15T13:13:20;8.63;;;7.83;;
58950;SDS011;44730;53.158;6.398;2023-05-15T13:15:47;9.68;;;7.45;;
58950;SDS011;44730;53.158;6.398;2023-05-15T13:18:15;8.35;;;7.60;;
58950;SDS011;44730;53.158;6.398;2023-05-15T13:20:42;9.27;;;8.38;;
58950;SDS011;44730;53.158;6.398;2023-05-15T13:23:09;9.90;;;9.00;;
58950;SDS011;44730;53.158;6.398;2023-05-15T13:25:35;9.25;;;8.23;;
58950;SDS011;44730;53.158;6.398;2023-05-15T13:28:02;9.32;;;8.35;;
58950;SDS011;44730;53.158;6.398;2023-05-15T13:30:33;9.32;;;8.30;;
58950;SDS011;44730;53.158;6.398;2023-05-15T13:33:00;10.07;;;9.07;;
58950;SDS011;44730;53.158;6.398;2023-05-15T13:35:26;10.65;;;9.45;;
58950;SDS011;44730;53.158;6.398;2023-05-15T13:37:52;9.05;;;8.15;;
58950;SDS011;44730;53.158;6.398;2023-05-15T13:40:18;10.90;;;9.48;;
58950;SDS011;44730;53.158;6.398;2023-05-15T13:42:45;9.45;;;8.45;;
58950;SDS011;44730;53.158;6.398;2023-05-15T13:45:13;9.27;;;8.35;;
58950;SDS011;44730;53.158;6.398;2023-05-15T13:47:39;9.65;;;8.63;;
58950;SDS011;44730;53.158;6.398;2023-05-15T13:50:06;8.32;;;7.53;;
58950;SDS011;44730;53.158;6.398;2023-05-15T13:52:32;8.88;;;7.97;;
58950;SDS011;44730;53.158;6.398;2023-05-15T13:54:58;9.05;;;8.15;;
58950;SDS011;44730;53.158;6.398;2023-05-15T13:57:24;9.55;;;8.57;;
58950;SDS011;44730;53.158;6.398;2023-05-15T13:59:51;10.15;;;9.15;;
58950;SDS011;44730;53.158;6.398;2023-05-15T14:02:17;8.95;;;8.05;;
58950;SDS011;44730;53.158;6.398;2023-05-15T14:04:45;10.52;;;8.05;;
58950;SDS011;44730;53.158;6.398;2023-05-15T14:07:11;8.75;;;7.85;;
58950;SDS011;44730;53.158;6.398;2023-05-15T14:09:37;8.23;;;7.22;;
58950;SDS011;44730;53.158;6.398;2023-05-15T14:12:04;7.53;;;6.82;;
58950;SDS011;44730;53.158;6.398;2023-05-15T14:14:30;8.00;;;7.20;;
58950;SDS011;44730;53.158;6.398;2023-05-15T14:16:56;7.72;;;6.93;;
58950;SDS011;44730;53.158;6.398;2023-05-15T14:19:22;8.05;;;7.18;;
58950;SDS011;44730;53.158;6.398;2023-05-15T14:21:49;7.80;;;7.10;;
58950;SDS011;44730;53.158;6.398;2023-05-15T14:24:15;7.03;;;6.25;;
58950;SDS011;44730;53.158;6.398;2023-05-15T14:26:41;8.40;;;6.32;;
58950;SDS011;44730;53.158;6.398;2023-05-15T14:29:08;8.20;;;6.35;;
58950;SDS011;44730;53.158;6.398;2023-05-15T14:31:35;6.32;;;5.72;;
58950;SDS011;44730;53.158;6.398;2023-05-15T14:34:01;7.97;;;6.43;;
58950;SDS011;44730;53.158;6.398;2023-05-15T14:36:29;6.95;;;6.25;;
58950;SDS011;44730;53.158;6.398;2023-05-15T14:38:56;7.00;;;6.30;;
58950;SDS011;44730;53.158;6.398;2023-05-15T14:41:22;6.82;;;5.80;;
58950;SDS011;44730;53.158;6.398;2023-05-15T14:43:48;6.07;;;5.22;;
58950;SDS011;44730;53.158;6.398;2023-05-15T14:46:14;5.47;;;4.93;;
58950;SDS011;44730;53.158;6.398;2023-05-15T14:48:40;6.85;;;5.85;;
58950;SDS011;44730;53.158;6.398;2023-05-15T14:51:07;7.15;;;5.50;;
58950;SDS011;44730;53.158;6.398;2023-05-15T14:53:33;5.72;;;5.07;;
58950;SDS011;44730;53.158;6.398;2023-05-15T14:55:59;5.43;;;4.80;;
58950;SDS011;44730;53.158;6.398;2023-05-15T14:58:25;6.38;;;5.32;;
58950;SDS011;44730;53.158;6.398;2023-05-15T15:00:51;5.47;;;4.97;;
58950;SDS011;44730;53.158;6.398;2023-05-15T15:03:17;5.93;;;5.32;;
58950;SDS011;44730;53.158;6.398;2023-05-15T15:05:45;6.60;;;5.57;;
58950;SDS011;44730;53.158;6.398;2023-05-15T15:08:11;6.38;;;5.68;;
58950;SDS011;44730;53.158;6.398;2023-05-15T15:10:38;7.30;;;5.80;;
58950;SDS011;44730;53.158;6.398;2023-05-15T15:13:05;6.35;;;5.75;;
58950;SDS011;44730;53.158;6.398;2023-05-15T15:15:35;6.47;;;5.82;;